HKKI

Kisumu Airport

Kisumu, Kenya
TAF HKKI 251100Z 2512/2612 23010KT 9999 FEW029CB SCT090 TEMPO 2512/2518 -SHRA FEW023CB SCT090 BECMG 2520/2523 00000KT FEW021 TEMPO 2600/2606 06010KT CAVOK BECMG 2608/2611 23010KT 9999 FEW029CB SCT090
Issued Valid From Valid To
Sep-25 @ 11:00 UTC
(4 hours ago)
Sep-25 @ 12:00 UTC
(3 hours ago)
Sep-26 @ 12:00 UTC
(in 21 hours)
Sep-25 @ 12:00 to Sep-25 @ 20:00
TAF HKKI 251100Z 2512/2612 23010KT 9999 FEW029CB SCT090
Wind Visibility Clouds
230° at 10 knots 10,000+ meters
  • Few at 2,900' AGL
  • Scattered at 9,000' AGL
Temporary Sep-25 @ 12:00 to Sep-25 @ 18:00
TEMPO 2512/2518 -SHRA FEW023CB SCT090
Clouds Conditions
  • Few at 2,300' AGL
  • Scattered at 9,000' AGL
  • Light Rain
Becoming Sep-25 @ 20:00 to Sep-26 @ 08:00
BECMG 2520/2523 00000KT FEW021
Visibility Clouds
10,000+ meters
  • Few at 2,100' AGL
Temporary Sep-26 @ 00:00 to Sep-26 @ 06:00
TEMPO 2600/2606 06010KT CAVOK
Wind Visibility Clouds Conditions
60° at 10 knots 10,000+ meters
  • No significant clouds
Becoming Sep-26 @ 08:00 to Sep-26 @ 12:00
BECMG 2608/2611 23010KT 9999 FEW029CB SCT090
Wind Visibility Clouds
230° at 10 knots 10,000+ meters
  • Few at 2,900' AGL
  • Scattered at 9,000' AGL
TAF HKKI 251100Z 2512/2612 23010KT 9999 FEW029CB SCT090 TEMPO 2512/2518 -SHRA FEW023CB SCT090 BECMG 2520/2523 00000KT FEW021 TEMPO 2600/2606 06010KT CAVOK BECMG 2608/2611 23010KT 9999 FEW029CB SCT090
Issued Sep-25 @ 11:00 UTC
(4 hours ago)
Valid From Sep-25 @ 12:00 UTC
(3 hours ago)
Valid To Sep-26 @ 12:00 UTC
(in 21 hours)
Sep-25 @ 12:00 - Sep-25 @ 20:00
Wind Visibility
230° at 10 knots 10,000+ meters
Clouds
  • Few at 2,900' AGL
  • Scattered at 9,000' AGL
Temporary Sep-25 @ 12:00 - Sep-25 @ 18:00
Clouds
  • Few at 2,300' AGL
  • Scattered at 9,000' AGL
Conditions
  • Light Rain
Becoming Sep-25 @ 20:00 - Sep-26 @ 08:00
Clouds
  • Few at 2,100' AGL
Temporary Sep-26 @ 00:00 - Sep-26 @ 06:00
Wind Visibility
60° at 10 knots 10,000+ meters
Clouds
  • No significant clouds
Conditions
Becoming Sep-26 @ 08:00 - Sep-26 @ 12:00
Wind Visibility
230° at 10 knots 10,000+ meters
Clouds
  • Few at 2,900' AGL
  • Scattered at 9,000' AGL